createdAt,value
2023-04-08T00:00:02.790Z,1015.89
2023-04-08T00:01:02.817Z,1015.84
2023-04-08T00:02:02.889Z,1015.81
2023-04-08T00:03:03.097Z,1015.79
2023-04-08T00:04:02.958Z,1015.78
2023-04-08T00:05:02.818Z,1015.74
2023-04-08T00:06:02.727Z,1015.76
2023-04-08T00:07:02.715Z,1015.80
2023-04-08T00:08:02.704Z,1015.75
2023-04-08T00:09:02.703Z,1015.78
2023-04-08T00:10:02.684Z,1015.75
2023-04-08T00:11:02.682Z,1015.81
2023-04-08T00:12:02.663Z,1015.85
2023-04-08T00:13:02.688Z,1015.83
2023-04-08T00:14:02.660Z,1015.84
2023-04-08T00:15:02.633Z,1015.82
2023-04-08T00:16:02.620Z,1015.76
2023-04-08T00:17:02.699Z,1015.80
2023-04-08T00:18:02.656Z,1015.79
2023-04-08T00:19:02.605Z,1015.78
2023-04-08T00:20:02.594Z,1015.82
2023-04-08T00:21:02.580Z,1015.84
2023-04-08T00:22:02.556Z,1015.81
2023-04-08T00:23:02.549Z,1015.79
2023-04-08T00:24:02.534Z,1015.83
2023-04-08T00:25:02.538Z,1015.82
2023-04-08T00:26:02.512Z,1015.82
2023-04-08T00:27:02.503Z,1015.81
2023-04-08T00:28:02.492Z,1015.85
2023-04-08T00:29:02.495Z,1015.79
2023-04-08T00:30:02.482Z,1015.77
2023-04-08T00:31:02.499Z,1015.76
2023-04-08T00:32:02.478Z,1015.81
2023-04-08T00:33:02.519Z,1015.79
2023-04-08T00:34:02.450Z,1015.79
2023-04-08T00:35:02.439Z,1015.78
2023-04-08T00:36:02.442Z,1015.81
2023-04-08T00:37:02.394Z,1015.85
2023-04-08T00:38:02.383Z,1015.83
2023-04-08T00:39:02.394Z,1015.83
2023-04-08T00:40:02.361Z,1015.88
2023-04-08T00:41:02.355Z,1015.93
2023-04-08T00:42:02.339Z,1015.87
2023-04-08T00:43:02.331Z,1015.85
2023-04-08T00:44:02.323Z,1015.88
2023-04-08T00:45:02.326Z,1015.90
2023-04-08T00:46:02.358Z,1015.86
2023-04-08T00:47:02.290Z,1015.83
2023-04-08T00:48:02.339Z,1015.82
2023-04-08T00:49:02.306Z,1015.85
2023-04-08T00:50:02.259Z,1015.86
2023-04-08T00:51:02.254Z,1015.81
2023-04-08T00:52:02.282Z,1015.85
2023-04-08T00:53:02.222Z,1015.83
2023-04-08T00:54:02.225Z,1015.80
2023-04-08T00:55:02.214Z,1015.87
2023-04-08T00:56:02.192Z,1015.84
2023-04-08T00:57:02.188Z,1015.80
2023-04-08T00:58:02.171Z,1015.79
2023-04-08T00:59:02.175Z,1015.79
2023-04-08T01:00:02.205Z,1015.78
2023-04-08T01:01:02.218Z,1015.74
2023-04-08T01:02:02.257Z,1015.75
2023-04-08T01:03:02.242Z,1015.70
2023-04-08T01:04:02.254Z,1015.71
2023-04-08T01:05:02.122Z,1015.77
2023-04-08T01:06:02.082Z,1015.77
2023-04-08T01:07:02.075Z,1015.77
2023-04-08T01:08:02.081Z,1015.77
2023-04-08T01:09:02.080Z,1015.84
2023-04-08T01:10:02.042Z,1015.81
2023-04-08T01:11:02.029Z,1015.81
2023-04-08T01:12:02.051Z,1015.87
2023-04-08T01:13:02.017Z,1015.88
2023-04-08T01:14:02.058Z,1015.84
2023-04-08T01:15:01.991Z,1015.82
2023-04-08T01:16:02.048Z,1015.79
2023-04-08T01:17:01.970Z,1015.82
2023-04-08T01:18:02.022Z,1015.88
2023-04-08T01:19:01.972Z,1015.82
2023-04-08T01:20:01.973Z,1015.88
2023-04-08T01:21:01.946Z,1015.90
2023-04-08T01:22:01.915Z,1015.90
2023-04-08T01:23:01.943Z,1015.89
2023-04-08T01:24:01.909Z,1015.91
2023-04-08T01:25:01.889Z,1015.87
2023-04-08T01:26:01.872Z,1015.95
2023-04-08T01:27:01.868Z,1015.94
2023-04-08T01:28:01.875Z,1015.99
2023-04-08T01:29:01.858Z,1016.01
2023-04-08T01:30:01.827Z,1015.98
2023-04-08T01:31:01.847Z,1015.96
2023-04-08T01:32:01.804Z,1015.95
2023-04-08T01:33:01.925Z,1015.99
2023-04-08T01:34:01.864Z,1015.97
2023-04-08T01:35:01.784Z,1016.00
2023-04-08T01:36:01.780Z,1015.98
2023-04-08T01:37:01.775Z,1015.98
2023-04-08T01:38:01.760Z,1015.97
2023-04-08T01:39:01.764Z,1015.99
2023-04-08T01:40:01.783Z,1015.94
2023-04-08T01:41:01.710Z,1015.96
2023-04-08T01:42:01.734Z,1015.95
2023-04-08T01:43:01.690Z,1015.93
2023-04-08T01:44:01.676Z,1015.95
2023-04-08T01:45:01.676Z,1015.99
2023-04-08T01:46:01.660Z,1016.01
2023-04-08T01:47:01.744Z,1015.97
2023-04-08T01:48:01.720Z,1015.97
2023-04-08T01:49:01.724Z,1016.01
2023-04-08T01:50:01.697Z,1016.01
2023-04-08T01:51:01.606Z,1016.04
2023-04-08T01:52:01.620Z,1016.02
2023-04-08T01:53:01.606Z,1016.04
2023-04-08T01:54:01.613Z,1016.05
2023-04-08T01:55:01.582Z,1016.07
2023-04-08T01:56:01.556Z,1016.08
2023-04-08T01:57:01.553Z,1016.04
2023-04-08T01:58:01.604Z,1016.02
2023-04-08T01:59:01.545Z,1016.01
2023-04-08T02:00:01.517Z,1016.04
2023-04-08T02:01:01.510Z,1016.00
2023-04-08T02:02:01.645Z,1016.01
2023-04-08T02:03:01.739Z,1015.97
2023-04-08T02:04:01.562Z,1016.01
2023-04-08T02:05:01.477Z,1015.94
2023-04-08T02:06:01.451Z,1015.98
2023-04-08T02:07:01.524Z,1015.95
2023-04-08T02:08:01.433Z,1015.94
2023-04-08T02:09:01.485Z,1015.94
2023-04-08T02:10:01.402Z,1015.95
2023-04-08T02:11:01.397Z,1015.95
2023-04-08T02:12:01.408Z,1015.97
2023-04-08T02:13:01.372Z,1015.95
2023-04-08T02:14:01.397Z,1015.96
2023-04-08T02:15:01.353Z,1016.03
2023-04-08T02:16:01.454Z,1016.04
2023-04-08T02:17:01.327Z,1016.06
2023-04-08T02:18:01.360Z,1016.07
2023-04-08T02:19:01.328Z,1016.09
2023-04-08T02:20:01.300Z,1016.11
2023-04-08T02:21:01.287Z,1016.08
2023-04-08T02:22:01.272Z,1016.14
2023-04-08T02:23:01.262Z,1016.15
2023-04-08T02:24:02.693Z,1016.10
2023-04-08T02:25:01.314Z,1016.16
2023-04-08T02:26:01.229Z,1016.19
2023-04-08T02:27:01.222Z,1016.16
2023-04-08T02:28:01.213Z,1016.23
2023-04-08T02:29:01.219Z,1016.18
2023-04-08T02:30:01.184Z,1016.20
2023-04-08T02:31:01.180Z,1016.19
2023-04-08T02:32:01.231Z,1016.21
2023-04-08T02:33:01.214Z,1016.24
2023-04-08T02:34:01.169Z,1016.22
2023-04-08T02:35:01.135Z,1016.18
2023-04-08T02:36:01.188Z,1016.21
2023-04-08T02:37:01.123Z,1016.20
2023-04-08T02:38:01.116Z,1016.17
2023-04-08T02:39:01.111Z,1016.18
2023-04-08T02:40:01.078Z,1016.19
2023-04-08T02:41:01.126Z,1016.20
2023-04-08T02:42:01.082Z,1016.21
2023-04-08T02:43:01.059Z,1016.24
2023-04-08T02:44:01.036Z,1016.28
2023-04-08T02:45:01.028Z,1016.29
2023-04-08T02:46:01.066Z,1016.24
2023-04-08T02:47:01.005Z,1016.31
2023-04-08T02:48:01.070Z,1016.33
2023-04-08T02:49:00.982Z,1016.30
2023-04-08T02:50:00.975Z,1016.29
2023-04-08T02:51:00.978Z,1016.37
2023-04-08T02:52:00.949Z,1016.35
2023-04-08T02:53:00.941Z,1016.32
2023-04-08T02:54:00.930Z,1016.32
2023-04-08T02:55:00.918Z,1016.36
2023-04-08T02:56:00.950Z,1016.43
2023-04-08T02:57:00.921Z,1016.36
2023-04-08T02:58:00.885Z,1016.38
2023-04-08T02:59:00.928Z,1016.35
2023-04-08T03:00:00.887Z,1016.39
2023-04-08T03:01:00.899Z,1016.39
2023-04-08T03:02:00.910Z,1016.44
2023-04-08T03:03:01.019Z,1016.42
2023-04-08T03:04:00.829Z,1016.46
2023-04-08T03:05:00.821Z,1016.38
2023-04-08T03:06:00.821Z,1016.42
2023-04-08T03:07:00.801Z,1016.43
2023-04-08T03:08:00.803Z,1016.47
2023-04-08T03:09:00.783Z,1016.39
2023-04-08T03:10:00.769Z,1016.41
2023-04-08T03:11:00.769Z,1016.47
2023-04-08T03:12:00.743Z,1016.36
2023-04-08T03:13:00.742Z,1016.47
2023-04-08T03:14:00.712Z,1016.45
2023-04-08T03:15:00.747Z,1016.43
2023-04-08T03:16:00.693Z,1016.49
2023-04-08T03:17:00.820Z,1016.44
2023-04-08T03:18:00.764Z,1016.46
2023-04-08T03:19:00.745Z,1016.48
2023-04-08T03:20:00.654Z,1016.47
2023-04-08T03:21:00.643Z,1016.53
2023-04-08T03:22:00.627Z,1016.50
2023-04-08T03:23:00.629Z,1016.55
2023-04-08T03:24:00.610Z,1016.56
2023-04-08T03:25:00.639Z,1016.62
2023-04-08T03:26:00.617Z,1016.59
2023-04-08T03:27:00.612Z,1016.58
2023-04-08T03:28:00.567Z,1016.60
2023-04-08T03:29:00.590Z,1016.68
2023-04-08T03:30:00.561Z,1016.66
2023-04-08T03:31:00.533Z,1016.69
2023-04-08T03:32:00.551Z,1016.63
2023-04-08T03:33:00.605Z,1016.67
2023-04-08T03:34:00.520Z,1016.68
2023-04-08T03:35:00.511Z,1016.70
2023-04-08T03:36:00.502Z,1016.70
2023-04-08T03:37:00.468Z,1016.65
2023-04-08T03:38:00.456Z,1016.66
2023-04-08T03:39:00.477Z,1016.71
2023-04-08T03:40:00.440Z,1016.70
2023-04-08T03:41:00.435Z,1016.66
2023-04-08T03:42:00.416Z,1016.67
2023-04-08T03:43:00.403Z,1016.73
2023-04-08T03:44:00.418Z,1016.72
2023-04-08T03:45:00.407Z,1016.73
2023-04-08T03:46:00.391Z,1016.77
2023-04-08T03:47:00.369Z,1016.76
2023-04-08T03:48:00.384Z,1016.77
2023-04-08T03:49:00.366Z,1016.77
2023-04-08T03:50:00.335Z,1016.78
2023-04-08T03:51:00.319Z,1016.76
2023-04-08T03:52:00.304Z,1016.80
2023-04-08T03:53:00.350Z,1016.78
2023-04-08T03:54:00.300Z,1016.84
2023-04-08T03:55:00.277Z,1016.78
2023-04-08T03:56:00.270Z,1016.74
2023-04-08T03:57:00.251Z,1016.81
2023-04-08T03:58:00.241Z,1016.79
2023-04-08T03:59:00.252Z,1016.78
2023-04-08T04:00:00.262Z,1016.82
2023-04-08T04:01:00.229Z,1016.82
2023-04-08T04:02:00.275Z,1016.81
2023-04-08T04:03:00.255Z,1016.85
2023-04-08T04:04:00.349Z,1016.82
2023-04-08T04:05:00.373Z,1016.86
2023-04-08T04:06:00.171Z,1016.84
2023-04-08T04:07:00.143Z,1016.89
2023-04-08T04:08:00.134Z,1016.90
2023-04-08T04:09:00.123Z,1016.95
2023-04-08T04:10:00.178Z,1016.92
2023-04-08T04:11:00.115Z,1016.93
2023-04-08T04:12:00.112Z,1016.95
2023-04-08T04:13:00.113Z,1016.93
2023-04-08T04:14:00.107Z,1016.95
2023-04-08T04:15:00.107Z,1016.90
2023-04-08T04:16:00.086Z,1016.95
2023-04-08T04:17:00.090Z,1016.96
2023-04-08T04:18:00.077Z,1016.92
2023-04-08T04:19:00.293Z,1016.94
2023-04-08T04:20:00.005Z,1016.91
2023-04-08T04:20:59.994Z,1016.93
2023-04-08T04:21:59.983Z,1016.88
2023-04-08T04:22:59.976Z,1016.92
2023-04-08T04:23:59.978Z,1016.95
2023-04-08T04:24:59.954Z,1016.96
2023-04-08T04:25:59.941Z,1017.01
2023-04-08T04:26:59.946Z,1016.96
2023-04-08T04:27:59.920Z,1017.04
2023-04-08T04:28:59.925Z,1017.01
2023-04-08T04:29:59.937Z,1017.04
2023-04-08T04:30:59.921Z,1017.09
2023-04-08T04:31:59.877Z,1017.12
2023-04-08T04:32:59.931Z,1017.11
2023-04-08T04:33:59.857Z,1017.15
2023-04-08T04:34:59.871Z,1017.17
2023-04-08T04:35:59.870Z,1017.15
2023-04-08T04:36:59.824Z,1017.15
2023-04-08T04:37:59.811Z,1017.15
2023-04-08T04:38:59.819Z,1017.18
2023-04-08T04:39:59.805Z,1017.14
2023-04-08T04:40:59.780Z,1017.13
2023-04-08T04:41:59.769Z,1017.14
2023-04-08T04:42:59.762Z,1017.15
2023-04-08T04:43:59.749Z,1017.15
2023-04-08T04:44:59.784Z,1017.20
2023-04-08T04:45:59.768Z,1017.22
2023-04-08T04:46:59.716Z,1017.24
2023-04-08T04:47:59.768Z,1017.24
2023-04-08T04:48:59.822Z,1017.25
2023-04-08T04:49:59.684Z,1017.27
2023-04-08T04:50:59.670Z,1017.28
2023-04-08T04:51:59.668Z,1017.25
2023-04-08T04:52:59.648Z,1017.30
2023-04-08T04:53:59.657Z,1017.28
2023-04-08T04:54:59.626Z,1017.30
2023-04-08T04:55:59.627Z,1017.33
2023-04-08T04:56:59.606Z,1017.31
2023-04-08T04:57:59.603Z,1017.29
2023-04-08T04:58:59.591Z,1017.33
2023-04-08T04:59:59.584Z,1017.35
2023-04-08T05:00:59.577Z,1017.34
2023-04-08T05:01:59.689Z,1017.34
2023-04-08T05:02:59.728Z,1017.41
2023-04-08T05:03:59.551Z,1017.38
2023-04-08T05:04:59.635Z,1017.38
2023-04-08T05:05:59.516Z,1017.42
2023-04-08T05:06:59.509Z,1017.46
2023-04-08T05:07:59.494Z,1017.38
2023-04-08T05:08:59.506Z,1017.39
2023-04-08T05:09:59.475Z,1017.42
2023-04-08T05:10:59.468Z,1017.42
2023-04-08T05:11:59.457Z,1017.42
2023-04-08T05:12:59.441Z,1017.45
2023-04-08T05:13:59.478Z,1017.46
2023-04-08T05:14:59.433Z,1017.45
2023-04-08T05:15:59.497Z,1017.47
2023-04-08T05:16:59.399Z,1017.44
2023-04-08T05:17:59.435Z,1017.47
2023-04-08T05:18:59.392Z,1017.54
2023-04-08T05:19:59.373Z,1017.48
2023-04-08T05:20:59.379Z,1017.54
2023-04-08T05:21:59.356Z,1017.55
2023-04-08T05:22:59.347Z,1017.53
2023-04-08T05:23:59.392Z,1017.56
2023-04-08T05:24:59.314Z,1017.54
2023-04-08T05:25:59.309Z,1017.62
2023-04-08T05:26:59.297Z,1017.58
2023-04-08T05:27:59.292Z,1017.61
2023-04-08T05:28:59.284Z,1017.58
2023-04-08T05:29:59.263Z,1017.56
2023-04-08T05:30:59.277Z,1017.52
2023-04-08T05:31:59.244Z,1017.52
2023-04-08T05:33:00.585Z,1017.54
2023-04-08T05:33:59.246Z,1017.54
2023-04-08T05:34:59.207Z,1017.54
2023-04-08T05:35:59.280Z,1017.58
2023-04-08T05:36:59.209Z,1017.53
2023-04-08T05:37:59.198Z,1017.53
2023-04-08T05:39:00.037Z,1017.57
2023-04-08T05:39:59.158Z,1017.64
2023-04-08T05:40:59.149Z,1017.67
2023-04-08T05:41:59.154Z,1017.77
2023-04-08T05:42:59.120Z,1017.77
2023-04-08T05:43:59.128Z,1017.85
2023-04-08T05:44:59.125Z,1017.82
2023-04-08T05:45:59.105Z,1017.86
2023-04-08T05:46:59.212Z,1017.88
2023-04-08T05:47:59.122Z,1017.88
2023-04-08T05:48:59.078Z,1017.86
2023-04-08T05:49:59.056Z,1017.92
2023-04-08T05:50:59.036Z,1017.95
2023-04-08T05:51:59.028Z,1017.95
2023-04-08T05:52:59.043Z,1017.99
2023-04-08T05:53:59.008Z,1017.93
2023-04-08T05:54:59.029Z,1017.96
2023-04-08T05:55:58.988Z,1017.88
2023-04-08T05:56:58.970Z,1017.93
2023-04-08T05:57:58.958Z,1017.89
2023-04-08T05:58:58.947Z,1017.91
2023-04-08T05:59:58.949Z,1017.92
2023-04-08T06:00:58.927Z,1017.88
2023-04-08T06:01:59.020Z,1017.93
2023-04-08T06:02:59.154Z,1017.86
2023-04-08T06:03:59.082Z,1017.93
2023-04-08T06:04:58.951Z,1017.84
2023-04-08T06:05:58.885Z,1017.88
2023-04-08T06:06:58.863Z,1017.83
2023-04-08T06:07:58.847Z,1017.87
2023-04-08T06:08:58.858Z,1017.90
2023-04-08T06:09:58.836Z,1017.87
2023-04-08T06:10:58.830Z,1017.84
2023-04-08T06:11:58.800Z,1017.89
2023-04-08T06:12:58.793Z,1017.90
2023-04-08T06:13:58.778Z,1017.91
2023-04-08T06:14:58.785Z,1017.94
2023-04-08T06:15:58.761Z,1017.94
2023-04-08T06:16:58.817Z,1017.96
2023-04-08T06:17:58.752Z,1017.98
2023-04-08T06:18:58.721Z,1017.98
2023-04-08T06:19:58.744Z,1018.02
2023-04-08T06:20:58.699Z,1017.98
2023-04-08T06:21:58.711Z,1018.00
2023-04-08T06:22:58.693Z,1018.02
2023-04-08T06:23:58.671Z,1018.05
2023-04-08T06:24:58.686Z,1018.03
2023-04-08T06:25:58.658Z,1018.05
2023-04-08T06:26:58.634Z,1018.05
2023-04-08T06:27:58.640Z,1018.04
2023-04-08T06:28:58.630Z,1018.08
2023-04-08T06:29:58.604Z,1018.08
2023-04-08T06:30:58.596Z,1018.08
2023-04-08T06:31:58.874Z,1018.11
2023-04-08T06:32:58.622Z,1018.13
2023-04-08T06:33:58.599Z,1018.13
2023-04-08T06:34:58.565Z,1018.16
2023-04-08T06:35:58.569Z,1018.16
2023-04-08T06:36:58.530Z,1018.18
2023-04-08T06:37:58.518Z,1018.22
2023-04-08T06:38:58.510Z,1018.24
2023-04-08T06:39:58.528Z,1018.25
2023-04-08T06:40:58.510Z,1018.24
2023-04-08T06:41:58.480Z,1018.28
2023-04-08T06:42:58.465Z,1018.27
2023-04-08T06:43:58.453Z,1018.33
2023-04-08T06:44:58.634Z,1018.28
2023-04-08T06:45:58.486Z,1018.33
2023-04-08T06:46:58.420Z,1018.34
2023-04-08T06:47:58.439Z,1018.41
2023-04-08T06:48:58.402Z,1018.41
2023-04-08T06:49:58.402Z,1018.38
2023-04-08T06:50:58.412Z,1018.42
2023-04-08T06:51:58.367Z,1018.46
2023-04-08T06:52:58.372Z,1018.49
2023-04-08T06:53:58.348Z,1018.53
2023-04-08T06:54:58.353Z,1018.49
2023-04-08T06:55:58.326Z,1018.50
2023-04-08T06:56:58.429Z,1018.49
2023-04-08T06:57:58.302Z,1018.53
2023-04-08T06:58:58.295Z,1018.57
2023-04-08T06:59:58.296Z,1018.55
2023-04-08T07:00:58.295Z,1018.57
2023-04-08T07:01:58.462Z,1018.59
2023-04-08T07:02:58.306Z,1018.58
2023-04-08T07:03:58.249Z,1018.64
2023-04-08T07:04:58.247Z,1018.65
2023-04-08T07:05:58.217Z,1018.61
2023-04-08T07:06:58.206Z,1018.59
2023-04-08T07:07:58.198Z,1018.60
2023-04-08T07:08:58.194Z,1018.57
2023-04-08T07:09:58.185Z,1018.60
2023-04-08T07:10:58.166Z,1018.60
2023-04-08T07:11:58.542Z,1018.59
2023-04-08T07:12:58.169Z,1018.64
2023-04-08T07:13:58.137Z,1018.59
2023-04-08T07:14:58.328Z,1018.64
2023-04-08T07:15:58.114Z,1018.59
2023-04-08T07:16:58.127Z,1018.62
2023-04-08T07:17:58.129Z,1018.60
2023-04-08T07:18:58.081Z,1018.63
2023-04-08T07:19:58.114Z,1018.69
2023-04-08T07:20:58.068Z,1018.68
2023-04-08T07:21:58.050Z,1018.68
2023-04-08T07:22:58.041Z,1018.76
2023-04-08T07:23:58.026Z,1018.75
2023-04-08T07:24:58.038Z,1018.74
2023-04-08T07:25:58.006Z,1018.73
2023-04-08T07:26:57.993Z,1018.71
2023-04-08T07:27:57.986Z,1018.74
2023-04-08T07:28:58.011Z,1018.68
2023-04-08T07:29:57.965Z,1018.75
2023-04-08T07:30:57.970Z,1018.75
2023-04-08T07:31:57.943Z,1018.78
2023-04-08T07:33:00.462Z,1018.81
2023-04-08T07:33:57.921Z,1018.84
2023-04-08T07:34:57.921Z,1018.78
2023-04-08T07:35:57.927Z,1018.82
2023-04-08T07:36:57.885Z,1018.80
2023-04-08T07:37:57.924Z,1018.79
2023-04-08T07:38:57.896Z,1018.86
2023-04-08T07:39:57.864Z,1018.85
2023-04-08T07:40:57.838Z,1018.89
2023-04-08T07:41:57.834Z,1018.89
2023-04-08T07:42:57.825Z,1018.93
2023-04-08T07:43:57.866Z,1018.86
2023-04-08T07:44:57.824Z,1018.90
2023-04-08T07:45:57.796Z,1018.91
2023-04-08T07:46:57.776Z,1018.91
2023-04-08T07:47:57.865Z,1018.95
2023-04-08T07:48:57.780Z,1018.94
2023-04-08T07:49:57.743Z,1018.96
2023-04-08T07:51:09.400Z,1018.99
2023-04-08T07:51:58.718Z,1019.02
2023-04-08T07:52:57.708Z,1018.95
2023-04-08T07:53:57.706Z,1018.98
2023-04-08T07:54:57.684Z,1019.00
2023-04-08T07:55:57.844Z,1019.01
2023-04-08T07:56:57.666Z,1018.99
2023-04-08T07:57:57.653Z,1019.03
2023-04-08T07:58:57.833Z,1019.07
2023-04-08T07:59:57.633Z,1019.07
2023-04-08T08:00:57.649Z,1019.05
2023-04-08T08:01:57.640Z,1019.08
2023-04-08T08:02:57.680Z,1019.05
2023-04-08T08:03:58.202Z,1019.07
2023-04-08T08:04:57.616Z,1019.05
2023-04-08T08:05:57.593Z,1019.01
2023-04-08T08:06:57.591Z,1018.99
2023-04-08T08:07:57.544Z,1019.00
2023-04-08T08:08:57.593Z,1019.10
2023-04-08T08:09:57.529Z,1019.10
2023-04-08T08:10:57.532Z,1019.05
2023-04-08T08:11:57.536Z,1019.04
2023-04-08T08:12:57.499Z,1019.09
2023-04-08T08:13:57.478Z,1019.04
2023-04-08T08:14:57.471Z,1019.08
2023-04-08T08:15:57.534Z,1019.09
2023-04-08T08:16:57.464Z,1019.08
2023-04-08T08:17:57.445Z,1019.07
2023-04-08T08:18:57.442Z,1019.08
2023-04-08T08:19:57.414Z,1019.08
2023-04-08T08:20:57.420Z,1019.11
2023-04-08T08:22:05.467Z,1019.10
2023-04-08T08:22:57.980Z,1019.08
2023-04-08T08:23:57.387Z,1019.15
2023-04-08T08:24:57.371Z,1019.13
2023-04-08T08:25:57.351Z,1019.11
2023-04-08T08:26:57.339Z,1019.15
2023-04-08T08:27:57.338Z,1019.14
2023-04-08T08:28:57.348Z,1019.15
2023-04-08T08:29:57.307Z,1019.11
2023-04-08T08:30:57.413Z,1019.12
2023-04-08T08:31:57.287Z,1019.16
2023-04-08T08:32:57.362Z,1019.13
2023-04-08T08:33:57.278Z,1019.15
2023-04-08T08:34:57.254Z,1019.17
2023-04-08T08:35:57.257Z,1019.14
2023-04-08T08:36:57.236Z,1019.15
2023-04-08T08:37:57.232Z,1019.20
2023-04-08T08:38:57.223Z,1019.24
2023-04-08T08:39:57.262Z,1019.26
2023-04-08T08:40:57.201Z,1019.27
2023-04-08T08:41:57.182Z,1019.26
2023-04-08T08:42:57.177Z,1019.30
2023-04-08T08:43:57.154Z,1019.24
2023-04-08T08:44:57.146Z,1019.30
2023-04-08T08:45:57.134Z,1019.29
2023-04-08T08:46:57.225Z,1019.31
2023-04-08T08:47:57.188Z,1019.34
2023-04-08T08:48:57.122Z,1019.32
2023-04-08T08:49:57.087Z,1019.30
2023-04-08T08:50:57.087Z,1019.31
2023-04-08T08:51:57.067Z,1019.34
2023-04-08T08:52:57.066Z,1019.31
2023-04-08T08:53:57.058Z,1019.34
2023-04-08T08:54:57.032Z,1019.35
2023-04-08T08:56:13.633Z,1019.38
2023-04-08T08:56:58.009Z,1019.34
2023-04-08T08:57:57.013Z,1019.34
2023-04-08T08:58:56.987Z,1019.41
2023-04-08T08:59:56.995Z,1019.31
2023-04-08T09:00:56.967Z,1019.29
2023-04-08T09:01:57.060Z,1019.36
2023-04-08T09:02:57.295Z,1019.37
2023-04-08T09:03:57.059Z,1019.35
2023-04-08T09:04:57.192Z,1019.34
2023-04-08T09:05:56.921Z,1019.39
2023-04-08T09:06:56.905Z,1019.40
2023-04-08T09:07:56.907Z,1019.41
2023-04-08T09:08:56.886Z,1019.45
2023-04-08T09:09:56.868Z,1019.41
2023-04-08T09:10:56.861Z,1019.44
2023-04-08T09:11:56.846Z,1019.40
2023-04-08T09:12:56.853Z,1019.43
2023-04-08T09:13:56.827Z,1019.47
2023-04-08T09:14:56.814Z,1019.53
2023-04-08T09:15:56.850Z,1019.53
2023-04-08T09:16:56.797Z,1019.56
2023-04-08T09:17:56.828Z,1019.59
2023-04-08T09:18:56.804Z,1019.57
2023-04-08T09:19:56.760Z,1019.65
2023-04-08T09:20:56.798Z,1019.66
2023-04-08T09:21:56.741Z,1019.67
2023-04-08T09:22:56.785Z,1019.71
2023-04-08T09:23:56.741Z,1019.65
2023-04-08T09:24:56.749Z,1019.69
2023-04-08T09:25:56.741Z,1019.67
2023-04-08T09:26:56.729Z,1019.70
2023-04-08T09:27:56.672Z,1019.75
2023-04-08T09:28:56.688Z,1019.74
2023-04-08T09:29:56.662Z,1019.75
2023-04-08T09:30:56.654Z,1019.75
2023-04-08T09:31:56.873Z,1019.74
2023-04-08T09:32:56.699Z,1019.72
2023-04-08T09:33:56.628Z,1019.77
2023-04-08T09:34:56.601Z,1019.78
2023-04-08T09:35:56.620Z,1019.77
2023-04-08T09:36:56.858Z,1019.75
2023-04-08T09:37:56.572Z,1019.80
2023-04-08T09:38:56.571Z,1019.79
2023-04-08T09:39:56.552Z,1019.79
2023-04-08T09:40:56.542Z,1019.78
2023-04-08T09:41:56.527Z,1019.78
2023-04-08T09:42:56.515Z,1019.79
2023-04-08T09:43:56.546Z,1019.75
2023-04-08T09:44:56.502Z,1019.80
2023-04-08T09:45:56.524Z,1019.81
2023-04-08T09:46:56.471Z,1019.82
2023-04-08T09:47:56.536Z,1019.83
2023-04-08T09:48:56.479Z,1019.83
2023-04-08T09:49:56.531Z,1019.88
2023-04-08T09:50:56.426Z,1019.84
2023-04-08T09:51:56.415Z,1019.87
2023-04-08T09:52:56.431Z,1019.91
2023-04-08T09:53:56.434Z,1019.88
2023-04-08T09:54:56.400Z,1019.88
2023-04-08T09:55:56.370Z,1019.87
2023-04-08T09:56:56.375Z,1019.86
2023-04-08T09:57:56.351Z,1019.88
2023-04-08T09:58:56.385Z,1019.88
2023-04-08T09:59:56.358Z,1019.93
2023-04-08T10:00:56.349Z,1019.92
2023-04-08T10:01:56.360Z,1019.90
2023-04-08T10:02:56.656Z,1019.85
2023-04-08T10:03:56.358Z,1019.87
2023-04-08T10:04:56.340Z,1019.86
2023-04-08T10:05:56.270Z,1019.89
2023-04-08T10:06:56.259Z,1019.80
2023-04-08T10:07:56.260Z,1019.84
2023-04-08T10:08:56.295Z,1019.84
2023-04-08T10:09:56.231Z,1019.78
2023-04-08T10:10:56.269Z,1019.75
2023-04-08T10:11:56.202Z,1019.80
2023-04-08T10:12:56.191Z,1019.74
2023-04-08T10:13:56.196Z,1019.78
2023-04-08T10:14:56.173Z,1019.80
2023-04-08T10:15:56.160Z,1019.79
2023-04-08T10:16:56.172Z,1019.80
2023-04-08T10:17:56.182Z,1019.79
2023-04-08T10:18:56.138Z,1019.76
2023-04-08T10:19:56.126Z,1019.80
2023-04-08T10:20:56.110Z,1019.80
2023-04-08T10:21:56.090Z,1019.82
2023-04-08T10:22:56.116Z,1019.81
2023-04-08T10:23:56.092Z,1019.84
2023-04-08T10:24:56.081Z,1019.84
2023-04-08T10:25:56.059Z,1019.82
2023-04-08T10:26:56.037Z,1019.87
2023-04-08T10:27:56.022Z,1019.84
2023-04-08T10:28:56.028Z,1019.83
2023-04-08T10:29:56.001Z,1019.83
2023-04-08T10:30:56.010Z,1019.84
2023-04-08T10:31:56.026Z,1019.90
2023-04-08T10:32:56.043Z,1019.83
2023-04-08T10:33:55.997Z,1019.85
2023-04-08T10:34:55.950Z,1019.86
2023-04-08T10:35:55.988Z,1019.86
2023-04-08T10:36:55.928Z,1019.84
2023-04-08T10:37:55.914Z,1019.83
2023-04-08T10:38:55.925Z,1019.85
2023-04-08T10:39:55.891Z,1019.92
2023-04-08T10:40:55.904Z,1019.90
2023-04-08T10:41:55.871Z,1019.87
2023-04-08T10:42:55.865Z,1019.86
2023-04-08T10:43:55.862Z,1019.90
2023-04-08T10:44:55.838Z,1019.88
2023-04-08T10:45:55.880Z,1019.82
2023-04-08T10:46:55.881Z,1019.91
2023-04-08T10:47:55.831Z,1019.89
2023-04-08T10:48:55.816Z,1019.90
2023-04-08T10:49:55.785Z,1019.83
2023-04-08T10:50:55.775Z,1019.85
2023-04-08T10:51:55.759Z,1019.84
2023-04-08T10:52:55.748Z,1019.83
2023-04-08T10:53:55.750Z,1019.86
2023-04-08T10:54:55.728Z,1019.92
2023-04-08T10:55:55.717Z,1019.90
2023-04-08T10:56:55.732Z,1019.89
2023-04-08T10:57:57.721Z,1019.85
2023-04-08T10:58:55.697Z,1019.88
2023-04-08T10:59:55.673Z,1019.88
2023-04-08T11:00:55.696Z,1019.86
2023-04-08T11:01:55.757Z,1019.86
2023-04-08T11:02:55.752Z,1019.87
2023-04-08T11:03:56.059Z,1019.86
2023-04-08T11:04:55.619Z,1019.86
2023-04-08T11:05:55.613Z,1019.84
2023-04-08T11:06:55.601Z,1019.85
2023-04-08T11:07:55.592Z,1019.84
2023-04-08T11:08:55.651Z,1019.86
2023-04-08T11:09:55.566Z,1019.86
2023-04-08T11:10:55.555Z,1019.86
2023-04-08T11:11:55.543Z,1019.85
2023-04-08T11:12:55.574Z,1019.86
2023-04-08T11:13:55.870Z,1019.86
2023-04-08T11:14:55.512Z,1019.86
2023-04-08T11:15:55.552Z,1019.92
2023-04-08T11:16:55.517Z,1019.93
2023-04-08T11:17:55.496Z,1019.87
2023-04-08T11:18:55.491Z,1019.94
2023-04-08T11:19:55.460Z,1019.91
2023-04-08T11:20:55.700Z,1019.89
2023-04-08T11:21:55.437Z,1019.91
2023-04-08T11:22:55.429Z,1019.89
2023-04-08T11:23:55.434Z,1019.88
2023-04-08T11:24:55.411Z,1019.91
2023-04-08T11:25:55.404Z,1019.96
2023-04-08T11:26:55.385Z,1019.91
2023-04-08T11:27:55.473Z,1019.88
2023-04-08T11:28:55.401Z,1019.86
2023-04-08T11:29:55.348Z,1019.87
2023-04-08T11:30:55.367Z,1019.91
2023-04-08T11:31:55.329Z,1019.91
2023-04-08T11:32:55.417Z,1019.90
2023-04-08T11:33:55.456Z,1019.90
2023-04-08T11:34:55.301Z,1019.91
2023-04-08T11:35:55.335Z,1019.91
2023-04-08T11:36:55.274Z,1019.98
2023-04-08T11:37:55.313Z,1019.99
2023-04-08T11:38:55.274Z,1020.00
2023-04-08T11:39:55.241Z,1020.04
2023-04-08T11:40:55.234Z,1019.99
2023-04-08T11:41:55.277Z,1020.05
2023-04-08T11:42:55.210Z,1020.08
2023-04-08T11:43:55.250Z,1020.08
2023-04-08T11:44:55.205Z,1019.99
2023-04-08T11:45:55.197Z,1020.03
2023-04-08T11:46:55.262Z,1019.94
2023-04-08T11:47:55.202Z,1019.89
2023-04-08T11:48:55.167Z,1019.95
2023-04-08T11:49:55.126Z,1019.95
2023-04-08T11:50:55.120Z,1019.92
2023-04-08T11:51:55.116Z,1019.95
2023-04-08T11:52:55.096Z,1019.93
2023-04-08T11:53:56.337Z,1019.99
2023-04-08T11:54:55.087Z,1019.98
2023-04-08T11:55:55.062Z,1019.94
2023-04-08T11:56:55.050Z,1019.93
2023-04-08T11:57:55.071Z,1019.92
2023-04-08T11:58:55.033Z,1019.95
2023-04-08T11:59:55.022Z,1019.96
2023-04-08T12:00:55.036Z,1019.88
2023-04-08T12:01:55.015Z,1019.89
2023-04-08T12:02:55.107Z,1019.88
2023-04-08T12:03:55.374Z,1019.94
2023-04-08T12:04:54.992Z,1019.92